Time;durP1;ratioP1;P1;durP2;ratioP2;P2;SDS_P1;SDS_P2;PMS_P1;PMS_P2;Temp;Humidity;BMP_temperature;BMP_pressure;BME280_temperature;BME280_humidity;BME280_pressure;Samples;Min_cycle;Max_cycle;Signal;HPM_P1;HPM_P2
2022/03/17 00:00:23;;;;;;;14.27;12.47;;;;;;;;;;5073743;28;20314;-58
2022/03/17 00:02:49;;;;;;;15.87;12.70;;;;;;;;;;5073724;28;20693;-58
2022/03/17 00:05:15;;;;;;;16.00;12.43;;;;;;;;;;5073805;28;20195;-59
2022/03/17 00:07:43;;;;;;;17.13;13.77;;;;;;;;;;5073461;28;20203;-59
2022/03/17 00:10:10;;;;;;;14.40;12.90;;;;;;;;;;5073593;28;20200;-58
2022/03/17 00:12:36;;;;;;;14.37;12.83;;;;;;;;;;5073593;28;20203;-59
2022/03/17 00:15:04;;;;;;;14.90;13.00;;;;;;;;;;5073518;28;20717;-58
2022/03/17 00:17:30;;;;;;;15.53;13.90;;;;;;;;;;5073403;28;20206;-59
2022/03/17 00:19:56;;;;;;;16.63;13.20;;;;;;;;;;5073220;28;20199;-59
2022/03/17 00:22:22;;;;;;;16.60;14.27;;;;;;;;;;5073379;28;20673;-58
2022/03/17 00:24:49;;;;;;;16.73;13.70;;;;;;;;;;5072647;28;20247;-58
2022/03/17 00:27:16;;;;;;;17.73;14.10;;;;;;;;;;5073458;28;20207;-58
2022/03/17 00:29:42;;;;;;;16.33;14.30;;;;;;;;;;5073079;28;20618;-58
2022/03/17 00:32:08;;;;;;;15.87;13.40;;;;;;;;;;5073280;28;20227;-58
2022/03/17 00:35:35;;;;;;;15.07;13.47;;;;;;;;;;5072865;28;20210;-58
2022/03/17 00:37:20;;;;;;;15.17;13.57;;;;;;;;;;5073026;28;20199;-58
2022/03/17 00:39:46;;;;;;;15.20;13.30;;;;;;;;;;5072834;28;20210;-58
2022/03/17 00:42:14;;;;;;;16.00;14.17;;;;;;;;;;5072784;28;20232;-58
2022/03/17 00:44:40;;;;;;;15.70;13.30;;;;;;;;;;5072866;28;20196;-58
2022/03/17 00:47:06;;;;;;;14.77;13.27;;;;;;;;;;5072504;28;20223;-58
2022/03/17 00:49:32;;;;;;;17.67;14.40;;;;;;;;;;5072683;28;20286;-59
2022/03/17 00:51:58;;;;;;;15.63;14.03;;;;;;;;;;5072934;28;20617;-60
2022/03/17 00:54:24;;;;;;;15.43;13.57;;;;;;;;;;5072123;28;20215;-60
2022/03/17 00:56:50;;;;;;;16.27;14.20;;;;;;;;;;5072486;28;20298;-60
2022/03/17 00:59:17;;;;;;;14.43;12.90;;;;;;;;;;5072712;28;20291;-59
2022/03/17 01:01:43;;;;;;;16.57;13.37;;;;;;;;;;5072356;28;20260;-59
2022/03/17 01:04:09;;;;;;;17.87;14.27;;;;;;;;;;5062215;28;20204;-58
2022/03/17 01:06:35;;;;;;;19.30;14.40;;;;;;;;;;5052889;28;20216;-56
2022/03/17 01:09:01;;;;;;;16.37;13.57;;;;;;;;;;5052604;28;20682;-56
2022/03/17 01:11:30;;;;;;;17.07;13.60;;;;;;;;;;5052396;28;20197;-56
2022/03/17 01:13:56;;;;;;;15.50;13.63;;;;;;;;;;5052360;28;20204;-57
2022/03/17 01:16:24;;;;;;;16.73;14.03;;;;;;;;;;5052511;28;20287;-57
2022/03/17 01:18:49;;;;;;;15.67;13.97;;;;;;;;;;5051954;28;20212;-57
2022/03/17 01:21:15;;;;;;;15.33;13.20;;;;;;;;;;5052370;28;20281;-57
2022/03/17 01:23:41;;;;;;;15.23;13.57;;;;;;;;;;5052183;28;20246;-57
2022/03/17 01:26:07;;;;;;;15.07;13.47;;;;;;;;;;5052300;28;20219;-57
2022/03/17 01:28:33;;;;;;;14.80;13.23;;;;;;;;;;5052245;28;20686;-56
2022/03/17 01:30:59;;;;;;;15.00;13.43;;;;;;;;;;5052306;28;20200;-56
2022/03/17 01:33:27;;;;;;;16.60;13.93;;;;;;;;;;5052166;28;20200;-57
2022/03/17 01:35:53;;;;;;;18.40;14.00;;;;;;;;;;5051371;28;20654;-57
2022/03/17 01:38:19;;;;;;;16.10;13.67;;;;;;;;;;5052194;28;20237;-57
2022/03/17 01:40:45;;;;;;;17.27;13.50;;;;;;;;;;5051990;28;20224;-57
2022/03/17 01:43:11;;;;;;;15.70;12.80;;;;;;;;;;5052291;28;20329;-57
2022/03/17 01:45:37;;;;;;;14.97;13.37;;;;;;;;;;5051867;28;20258;-57
2022/03/17 01:48:03;;;;;;;15.47;13.03;;;;;;;;;;5052057;28;20326;-56
2022/03/17 01:50:30;;;;;;;16.27;13.63;;;;;;;;;;5052087;28;20271;-56
2022/03/17 01:52:57;;;;;;;15.83;13.90;;;;;;;;;;5051933;28;20208;-57
2022/03/17 01:55:23;;;;;;;15.10;13.57;;;;;;;;;;5052002;28;20192;-56
2022/03/17 01:57:49;;;;;;;15.67;13.97;;;;;;;;;;5051744;28;20196;-56
2022/03/17 02:00:17;;;;;;;15.17;12.83;;;;;;;;;;5051969;28;20339;-56
2022/03/17 02:02:43;;;;;;;15.17;13.57;;;;;;;;;;5051789;28;20693;-57
2022/03/17 02:05:10;;;;;;;16.93;13.97;;;;;;;;;;5051847;28;20204;-58
2022/03/17 02:07:37;;;;;;;17.73;13.70;;;;;;;;;;5051907;28;20200;-57
2022/03/17 02:10:04;;;;;;;15.13;13.60;;;;;;;;;;5051763;28;20296;-57
2022/03/17 02:15:15;;;;;;;17.73;14.27;;;;;;;;;;5052053;28;20262;-57
2022/03/17 02:17:43;;;;;;;16.77;14.07;;;;;;;;;;5051491;28;20662;-56
2022/03/17 02:20:11;;;;;;;15.30;13.70;;;;;;;;;;5051696;28;20287;-57
2022/03/17 02:22:41;;;;;;;17.83;13.57;;;;;;;;;;5051707;28;20196;-56
2022/03/17 02:27:54;;;;;;;16.73;14.10;;;;;;;;;;5051589;28;20246;-57
2022/03/17 02:30:21;;;;;;;16.27;14.60;;;;;;;;;;5051652;28;20716;-57
2022/03/17 02:32:47;;;;;;;17.10;14.17;;;;;;;;;;5051511;28;20220;-57
2022/03/17 02:35:15;;;;;;;18.23;14.40;;;;;;;;;;5051604;28;20606;-57
2022/03/17 02:37:41;;;;;;;16.17;14.50;;;;;;;;;;5051532;28;20203;-57
2022/03/17 02:40:10;;;;;;;17.43;13.87;;;;;;;;;;5051604;28;20202;-57
2022/03/17 02:42:37;;;;;;;17.33;14.67;;;;;;;;;;5051451;28;20208;-57
2022/03/17 02:45:04;;;;;;;15.17;13.40;;;;;;;;;;5051608;28;20227;-57
2022/03/17 02:47:30;;;;;;;23.00;15.20;;;;;;;;;;5054162;28;20207;-57
2022/03/17 02:49:56;;;;;;;16.53;14.63;;;;;;;;;;5055367;28;20265;-56
2022/03/17 02:52:22;;;;;;;16.93;15.03;;;;;;;;;;5055179;28;20202;-57
2022/03/17 02:54:48;;;;;;;16.53;14.77;;;;;;;;;;5055026;28;20204;-57
2022/03/17 02:57:16;;;;;;;18.60;15.97;;;;;;;;;;5055029;28;20629;-57
2022/03/17 02:59:42;;;;;;;17.73;15.83;;;;;;;;;;5054846;28;20663;-57
2022/03/17 03:02:08;;;;;;;16.50;14.70;;;;;;;;;;5054826;28;20624;-56
2022/03/17 03:04:34;;;;;;;18.53;15.23;;;;;;;;;;5054855;28;20334;-56
2022/03/17 03:07:02;;;;;;;18.40;16.33;;;;;;;;;;5054904;28;20201;-57
2022/03/17 03:09:28;;;;;;;18.80;16.57;;;;;;;;;;5054985;28;20245;-56
2022/03/17 03:11:54;;;;;;;19.27;15.73;;;;;;;;;;5054970;28;20192;-57
2022/03/17 03:14:22;;;;;;;18.57;16.53;;;;;;;;;;5054722;28;20203;-57
2022/03/17 03:16:48;;;;;;;18.27;16.07;;;;;;;;;;5054661;28;20644;-57
2022/03/17 03:19:14;;;;;;;19.23;16.10;;;;;;;;;;5054674;28;20230;-56
2022/03/17 03:21:40;;;;;;;19.57;15.93;;;;;;;;;;5054481;28;20344;-57
2022/03/17 03:24:06;;;;;;;20.77;17.43;;;;;;;;;;5054499;28;20880;-57
2022/03/17 03:26:32;;;;;;;18.93;16.03;;;;;;;;;;5054660;28;20200;-57
2022/03/17 03:28:58;;;;;;;18.27;16.23;;;;;;;;;;5054614;28;20196;-57
2022/03/17 03:31:25;;;;;;;19.53;16.50;;;;;;;;;;5054489;28;20533;-57
2022/03/17 03:33:51;;;;;;;18.83;16.83;;;;;;;;;;5054214;28;20238;-58
2022/03/17 03:39:02;;;;;;;18.57;16.27;;;;;;;;;;5054315;28;20599;-57
2022/03/17 03:41:28;;;;;;;19.33;16.37;;;;;;;;;;5054122;28;20228;-57
2022/03/17 03:43:54;;;;;;;19.23;16.57;;;;;;;;;;5054076;28;20279;-57
2022/03/17 03:46:21;;;;;;;20.37;16.87;;;;;;;;;;5053962;28;20246;-57
2022/03/17 03:48:49;;;;;;;19.57;17.20;;;;;;;;;;5053976;28;20739;-57
2022/03/17 03:51:17;;;;;;;22.03;17.43;;;;;;;;;;5054187;28;20201;-58
2022/03/17 03:56:29;;;;;;;20.03;16.77;;;;;;;;;;5054221;28;20246;-57
2022/03/17 03:58:55;;;;;;;20.27;17.33;;;;;;;;;;5053132;28;20211;-57
2022/03/17 04:01:22;;;;;;;19.27;16.73;;;;;;;;;;5053813;28;20843;-57
2022/03/17 04:03:52;;;;;;;20.50;16.70;;;;;;;;;;5053368;28;20206;-57
2022/03/17 04:06:18;;;;;;;20.67;17.40;;;;;;;;;;5053791;28;20232;-57
2022/03/17 04:08:44;;;;;;;19.87;16.93;;;;;;;;;;5053738;28;20713;-57
2022/03/17 04:11:10;;;;;;;21.17;17.97;;;;;;;;;;5053872;28;20287;-57
2022/03/17 04:13:36;;;;;;;20.37;17.80;;;;;;;;;;5053567;28;20267;-57
2022/03/17 04:16:02;;;;;;;22.43;18.53;;;;;;;;;;5053805;28;20200;-57
2022/03/17 04:18:28;;;;;;;20.40;17.30;;;;;;;;;;5053552;28;20434;-58
2022/03/17 04:20:55;;;;;;;20.47;17.90;;;;;;;;;;5053248;28;20238;-55
2022/03/17 04:23:21;;;;;;;20.50;17.63;;;;;;;;;;5053298;28;20248;-55
2022/03/17 04:25:47;;;;;;;20.97;17.83;;;;;;;;;;5053550;28;20665;-55
2022/03/17 04:28:13;;;;;;;20.37;17.57;;;;;;;;;;5053477;28;20204;-58
2022/03/17 04:30:39;;;;;;;19.97;17.67;;;;;;;;;;5053249;28;20208;-55
2022/03/17 04:33:05;;;;;;;22.57;18.10;;;;;;;;;;5053230;28;20204;-55
2022/03/17 04:35:31;;;;;;;19.83;17.50;;;;;;;;;;5053089;28;20200;-55
2022/03/17 04:37:58;;;;;;;21.67;19.03;;;;;;;;;;5053283;28;20215;-58
2022/03/17 04:40:24;;;;;;;21.83;18.10;;;;;;;;;;5052876;28;20565;-55
2022/03/17 04:42:50;;;;;;;21.30;18.57;;;;;;;;;;5052934;28;20262;-55
2022/03/17 04:45:16;;;;;;;21.27;18.97;;;;;;;;;;5053023;28;20207;-55
2022/03/17 04:47:42;;;;;;;21.80;18.10;;;;;;;;;;5052893;28;20192;-58
2022/03/17 04:50:09;;;;;;;23.30;19.17;;;;;;;;;;5053020;28;20944;-55
2022/03/17 04:55:21;;;;;;;22.07;18.77;;;;;;;;;;5052833;28;20211;-56
2022/03/17 04:57:47;;;;;;;20.50;18.00;;;;;;;;;;5052695;28;20208;-56
2022/03/17 05:00:14;;;;;;;20.40;18.07;;;;;;;;;;5053031;28;20242;-57
2022/03/17 05:02:40;;;;;;;22.47;18.43;;;;;;;;;;5052654;28;20755;-58
2022/03/17 05:05:06;;;;;;;21.37;18.40;;;;;;;;;;5052220;28;20192;-58
2022/03/17 05:07:34;;;;;;;19.20;17.13;;;;;;;;;;5052556;28;20196;-58
2022/03/17 05:10:00;;;;;;;21.07;18.53;;;;;;;;;;5052791;28;20218;-58
2022/03/17 05:12:27;;;;;;;23.10;17.70;;;;;;;;;;5052483;28;20192;-55
2022/03/17 05:14:53;;;;;;;23.13;19.03;;;;;;;;;;5052555;28;20200;-56
2022/03/17 05:17:19;;;;;;;21.20;18.93;;;;;;;;;;5052321;28;20223;-55
2022/03/17 05:19:45;;;;;;;22.30;18.40;;;;;;;;;;5052325;28;20386;-56
2022/03/17 05:22:11;;;;;;;23.73;19.33;;;;;;;;;;5052457;28;20270;-57
2022/03/17 05:24:37;;;;;;;24.30;20.03;;;;;;;;;;5051899;28;20318;-56
2022/03/17 05:27:03;;;;;;;22.53;19.63;;;;;;;;;;5052013;28;20502;-55
2022/03/17 05:29:30;;;;;;;21.07;18.83;;;;;;;;;;5052452;28;20200;-55
2022/03/17 05:31:57;;;;;;;22.70;19.67;;;;;;;;;;5052030;28;20694;-58
2022/03/17 05:34:23;;;;;;;23.20;19.63;;;;;;;;;;5052233;28;20192;-58
2022/03/17 05:36:49;;;;;;;22.57;20.03;;;;;;;;;;5051912;28;20287;-58
2022/03/17 05:39:14;;;;;;;23.47;19.23;;;;;;;;;;5052306;28;20295;-55
2022/03/17 05:41:41;;;;;;;23.13;18.83;;;;;;;;;;5052058;28;20598;-58
2022/03/17 05:44:08;;;;;;;22.07;19.50;;;;;;;;;;5052116;28;20204;-55
2022/03/17 05:46:35;;;;;;;19.90;17.53;;;;;;;;;;5052045;28;20204;-55
2022/03/17 05:49:01;;;;;;;20.20;18.10;;;;;;;;;;5052063;28;20215;-56
2022/03/17 05:51:27;;;;;;;23.07;18.83;;;;;;;;;;5051973;28;20447;-56
2022/03/17 05:53:53;;;;;;;23.03;19.13;;;;;;;;;;5051886;28;20513;-55
2022/03/17 05:56:19;;;;;;;21.37;19.07;;;;;;;;;;5051972;28;20674;-56
2022/03/17 05:58:45;;;;;;;21.80;19.03;;;;;;;;;;5051928;28;20195;-56
2022/03/17 06:01:12;;;;;;;22.27;19.47;;;;;;;;;;5051737;28;20239;-56
2022/03/17 06:03:39;;;;;;;21.93;18.80;;;;;;;;;;5051689;28;20203;-56
2022/03/17 06:06:05;;;;;;;21.57;18.97;;;;;;;;;;5051809;28;20792;-55
2022/03/17 06:08:31;;;;;;;22.13;19.73;;;;;;;;;;5051959;28;20434;-55
2022/03/17 06:10:57;;;;;;;22.20;19.43;;;;;;;;;;5052005;28;20868;-56
2022/03/17 06:13:23;;;;;;;22.43;19.17;;;;;;;;;;5051429;28;20278;-56
2022/03/17 06:15:49;;;;;;;22.83;18.73;;;;;;;;;;5051508;28;20577;-56
2022/03/17 06:18:15;;;;;;;21.57;19.27;;;;;;;;;;5051186;28;20207;-56
2022/03/17 06:20:42;;;;;;;23.57;19.63;;;;;;;;;;5051538;28;20686;-56
2022/03/17 06:23:08;;;;;;;23.37;19.30;;;;;;;;;;5053456;28;20200;-56
2022/03/17 06:25:35;;;;;;;22.67;19.93;;;;;;;;;;5055734;28;20670;-57
2022/03/17 06:28:01;;;;;;;23.17;19.27;;;;;;;;;;5055545;28;20227;-57
2022/03/17 06:30:28;;;;;;;23.47;19.97;;;;;;;;;;5055736;28;20461;-57
2022/03/17 06:32:54;;;;;;;24.13;20.63;;;;;;;;;;5055286;28;20207;-57
2022/03/17 06:35:21;;;;;;;22.60;19.40;;;;;;;;;;5055393;28;20211;-57
2022/03/17 06:37:49;;;;;;;23.60;21.10;;;;;;;;;;5055223;28;20195;-56
2022/03/17 06:40:16;;;;;;;22.43;19.40;;;;;;;;;;5055212;28;20219;-56
2022/03/17 06:42:43;;;;;;;24.63;19.93;;;;;;;;;;5055157;28;21000;-57
2022/03/17 06:45:09;;;;;;;23.83;19.63;;;;;;;;;;5055359;28;20238;-56
2022/03/17 06:47:35;;;;;;;25.93;20.67;;;;;;;;;;5054963;28;20201;-57
2022/03/17 06:50:01;;;;;;;22.20;19.77;;;;;;;;;;5054996;28;20299;-57
2022/03/17 06:52:27;;;;;;;25.17;20.53;;;;;;;;;;5055177;28;20276;-57
2022/03/17 06:54:55;;;;;;;23.13;19.77;;;;;;;;;;5054925;28;20295;-57
2022/03/17 06:57:21;;;;;;;24.50;19.43;;;;;;;;;;5055109;28;20200;-59
2022/03/17 06:59:48;;;;;;;21.80;19.50;;;;;;;;;;5054987;28;20453;-57
2022/03/17 07:02:14;;;;;;;22.53;19.73;;;;;;;;;;5055039;28;20219;-58
2022/03/17 07:04:40;;;;;;;23.70;20.47;;;;;;;;;;5054762;28;20732;-57
2022/03/17 07:07:06;;;;;;;21.80;19.50;;;;;;;;;;5054719;28;20204;-57
2022/03/17 07:09:32;;;;;;;21.83;19.23;;;;;;;;;;5054690;28;20200;-57
2022/03/17 07:12:00;;;;;;;22.40;19.57;;;;;;;;;;5054943;28;20673;-57
2022/03/17 07:14:26;;;;;;;22.67;19.20;;;;;;;;;;5054722;28;20205;-57
2022/03/17 07:16:52;;;;;;;22.13;19.03;;;;;;;;;;5054329;28;20563;-57
2022/03/17 07:19:18;;;;;;;22.80;20.43;;;;;;;;;;5054629;28;20658;-56
2022/03/17 07:21:44;;;;;;;22.40;20.00;;;;;;;;;;5054557;28;20220;-57
2022/03/17 07:24:10;;;;;;;23.37;20.53;;;;;;;;;;5054537;28;20780;-56
2022/03/17 07:26:36;;;;;;;23.10;20.60;;;;;;;;;;5054371;28;20196;-57
2022/03/17 07:29:03;;;;;;;22.17;19.77;;;;;;;;;;5054464;28;20734;-57
2022/03/17 07:31:29;;;;;;;21.13;18.80;;;;;;;;;;5054570;28;20196;-57
2022/03/17 07:33:55;;;;;;;21.97;19.67;;;;;;;;;;5053357;28;20564;-57
2022/03/17 07:36:22;;;;;;;21.40;18.90;;;;;;;;;;5054560;28;20223;-57
2022/03/17 07:38:48;;;;;;;22.67;19.57;;;;;;;;;;5054360;28;20659;-56
2022/03/17 07:41:14;;;;;;;21.50;18.93;;;;;;;;;;5054399;28;20227;-57
2022/03/17 07:43:41;;;;;;;21.27;18.97;;;;;;;;;;5054247;28;20283;-58
2022/03/17 07:46:08;;;;;;;23.20;19.87;;;;;;;;;;5054336;28;20231;-56
2022/03/17 07:48:34;;;;;;;21.73;19.40;;;;;;;;;;5052562;28;20211;-56
2022/03/17 07:51:00;;;;;;;23.80;20.63;;;;;;;;;;5054150;28;20192;-57
2022/03/17 07:53:26;;;;;;;21.57;19.33;;;;;;;;;;5054136;28;20235;-55
2022/03/17 07:55:54;;;;;;;23.10;20.70;;;;;;;;;;5053765;28;20662;-55
2022/03/17 07:58:20;;;;;;;22.73;20.23;;;;;;;;;;5053718;28;20204;-56
2022/03/17 08:00:46;;;;;;;23.33;20.90;;;;;;;;;;5053912;28;20220;-55
2022/03/17 08:03:14;;;;;;;22.70;20.23;;;;;;;;;;5054048;28;20275;-55
2022/03/17 08:05:40;;;;;;;24.33;21.23;;;;;;;;;;5053630;28;20250;-55
2022/03/17 08:08:06;;;;;;;24.17;21.57;;;;;;;;;;5053915;28;21022;-55
2022/03/17 08:10:32;;;;;;;23.90;20.70;;;;;;;;;;5053758;28;20216;-55
2022/03/17 08:12:59;;;;;;;23.23;19.97;;;;;;;;;;5053631;28;20227;-56
2022/03/17 08:15:26;;;;;;;22.83;20.33;;;;;;;;;;5053596;28;20216;-55
2022/03/17 08:17:52;;;;;;;23.97;21.37;;;;;;;;;;5053166;28;20220;-55
2022/03/17 08:20:20;;;;;;;23.57;20.80;;;;;;;;;;5053644;28;20250;-55
2022/03/17 08:22:48;;;;;;;28.17;25.10;;;;;;;;;;5053571;28;20235;-55
2022/03/17 08:25:14;;;;;;;33.50;27.83;;;;;;;;;;5053344;28;20246;-55
2022/03/17 08:27:40;;;;;;;37.87;31.50;;;;;;;;;;5053390;28;20602;-56
2022/03/17 08:30:07;;;;;;;34.50;29.13;;;;;;;;;;5053366;28;20226;-57
2022/03/17 08:32:33;;;;;;;29.47;25.53;;;;;;;;;;5053372;28;20245;-55
2022/03/17 08:34:59;;;;;;;28.13;25.13;;;;;;;;;;5053438;28;20188;-56
2022/03/17 08:37:26;;;;;;;28.90;25.70;;;;;;;;;;5053230;28;20214;-57
2022/03/17 08:39:52;;;;;;;30.73;26.87;;;;;;;;;;5052975;28;20203;-56
2022/03/17 08:42:18;;;;;;;29.40;26.23;;;;;;;;;;5052927;28;20239;-57
2022/03/17 08:44:44;;;;;;;29.97;25.90;;;;;;;;;;5052655;28;20659;-55
2022/03/17 08:49:54;;;;;;;31.50;25.57;;;;;;;;;;5052906;28;20207;-56
2022/03/17 08:52:20;;;;;;;31.43;26.43;;;;;;;;;;5052954;28;20200;-57
2022/03/17 08:54:48;;;;;;;30.47;27.07;;;;;;;;;;5052727;28;20203;-59
2022/03/17 08:57:14;;;;;;;30.57;27.37;;;;;;;;;;5052952;28;20317;-57
2022/03/17 08:59:40;;;;;;;35.00;28.90;;;;;;;;;;5052484;28;20663;-56
2022/03/17 09:02:06;;;;;;;32.60;27.90;;;;;;;;;;5052691;28;20228;-56
2022/03/17 09:04:32;;;;;;;31.47;28.07;;;;;;;;;;5052732;28;20200;-57
2022/03/17 09:06:59;;;;;;;31.37;27.97;;;;;;;;;;5052638;28;20238;-57
2022/03/17 09:09:26;;;;;;;32.40;28.90;;;;;;;;;;5052612;28;20201;-58
2022/03/17 09:11:53;;;;;;;35.57;28.73;;;;;;;;;;5052017;28;20283;-57
2022/03/17 09:14:20;;;;;;;35.20;31.40;;;;;;;;;;5052303;28;20724;-57
2022/03/17 09:16:46;;;;;;;33.17;29.57;;;;;;;;;;5052206;28;20196;-58
2022/03/17 09:19:12;;;;;;;35.40;30.73;;;;;;;;;;5052342;28;20219;-58
2022/03/17 09:21:38;;;;;;;34.60;30.20;;;;;;;;;;5051896;28;20224;-57
2022/03/17 09:24:04;;;;;;;33.30;29.70;;;;;;;;;;5052066;28;20586;-58
2022/03/17 09:26:30;;;;;;;37.80;31.57;;;;;;;;;;5052719;28;20246;-59
2022/03/17 09:28:58;;;;;;;35.27;29.70;;;;;;;;;;5052221;28;20213;-58
2022/03/17 09:31:24;;;;;;;35.20;30.40;;;;;;;;;;5052211;28;20220;-58
2022/03/17 09:33:50;;;;;;;41.87;33.30;;;;;;;;;;5050018;28;20200;-58
2022/03/17 09:36:17;;;;;;;35.10;31.33;;;;;;;;;;5052141;28;20202;-57
2022/03/17 09:38:43;;;;;;;35.70;31.67;;;;;;;;;;5051840;28;20223;-57
2022/03/17 09:41:25;;;;;;;39.20;32.43;;;;;;;;;;5051864;28;20223;-57
2022/03/17 09:43:51;;;;;;;30.43;27.07;;;;;;;;;;5051608;28;20246;-58
2022/03/17 09:46:21;;;;;;;22.33;19.90;;;;;;;;;;5051791;28;20196;-58
2022/03/17 09:48:48;;;;;;;21.43;19.13;;;;;;;;;;5051551;28;20208;-58
2022/03/17 09:51:15;;;;;;;19.93;16.33;;;;;;;;;;5051846;28;20207;-58
2022/03/17 09:53:41;;;;;;;17.00;13.53;;;;;;;;;;5051720;28;20271;-58
2022/03/17 09:56:07;;;;;;;14.53;12.53;;;;;;;;;;5050851;28;20708;-58
2022/03/17 09:58:33;;;;;;;13.07;11.80;;;;;;;;;;5051514;28;20201;-58
2022/03/17 10:01:01;;;;;;;14.00;11.27;;;;;;;;;;5051666;28;20200;-57
2022/03/17 10:03:29;;;;;;;11.47;10.27;;;;;;;;;;5051552;28;20223;-58
2022/03/17 10:05:57;;;;;;;11.27;10.07;;;;;;;;;;5051468;28;20208;-58
2022/03/17 10:08:23;;;;;;;10.53;9.37;;;;;;;;;;5051531;28;20636;-57
2022/03/17 10:10:52;;;;;;;11.63;9.80;;;;;;;;;;5051441;28;20609;-57
2022/03/17 10:13:19;;;;;;;11.80;9.57;;;;;;;;;;5051408;28;20286;-59
2022/03/17 10:15:46;;;;;;;11.27;9.53;;;;;;;;;;5051505;28;20207;-58
2022/03/17 10:18:19;;;;;;;10.00;8.30;;;;;;;;;;5051646;28;20196;-58
2022/03/17 10:20:47;;;;;;;10.57;8.80;;;;;;;;;;5051352;28;20570;-58
2022/03/17 10:23:13;;;;;;;9.37;8.30;;;;;;;;;;5051344;28;20235;-59
2022/03/17 10:25:39;;;;;;;9.10;8.20;;;;;;;;;;5051299;28;20191;-58
2022/03/17 10:28:07;;;;;;;10.10;8.00;;;;;;;;;;5051636;28;20204;-59
2022/03/17 10:30:35;;;;;;;9.43;7.70;;;;;;;;;;5051514;28;20200;-58
2022/03/17 10:33:01;;;;;;;8.43;7.60;;;;;;;;;;5051425;28;20208;-58
2022/03/17 10:35:34;;;;;;;12.13;7.20;;;;;;;;;;5051640;28;20279;-58
2022/03/17 10:38:10;;;;;;;8.37;6.60;;;;;;;;;;5051616;28;20230;-60
2022/03/17 10:40:36;;;;;;;8.20;6.70;;;;;;;;;;5051659;28;20266;-61
2022/03/17 10:43:19;;;;;;;8.33;6.03;;;;;;;;;;5050171;28;20294;-62
2022/03/17 10:45:46;;;;;;;8.07;6.57;;;;;;;;;;5051469;28;20207;-59
2022/03/17 10:48:12;;;;;;;6.93;5.97;;;;;;;;;;5051628;28;20258;-56
2022/03/17 10:50:38;;;;;;;7.63;5.97;;;;;;;;;;5051203;28;20295;-59
2022/03/17 10:53:04;;;;;;;7.83;6.90;;;;;;;;;;5051450;28;20193;-61
2022/03/17 10:55:33;;;;;;;8.53;5.93;;;;;;;;;;5051552;28;20326;-61
2022/03/17 10:58:11;;;;;;;8.20;6.37;;;;;;;;;;5049226;28;20208;-61
2022/03/17 11:00:45;;;;;;;8.17;5.37;;;;;;;;;;5051055;28;20200;-63
2022/03/17 11:03:11;;;;;;;8.17;5.80;;;;;;;;;;5050977;28;20691;-61
2022/03/17 11:05:37;;;;;;;7.77;5.63;;;;;;;;;;5051323;28;20282;-61
2022/03/17 11:08:04;;;;;;;7.30;5.30;;;;;;;;;;5053046;28;20595;-62
2022/03/17 11:10:32;;;;;;;6.70;5.43;;;;;;;;;;5054985;28;20577;-61
2022/03/17 11:12:59;;;;;;;9.47;5.07;;;;;;;;;;5054656;28;20196;-61
2022/03/17 11:15:26;;;;;;;8.87;5.63;;;;;;;;;;5054817;28;20212;-61
2022/03/17 11:17:52;;;;;;;8.77;5.03;;;;;;;;;;5054673;28;20200;-61
2022/03/17 11:20:19;;;;;;;5.30;4.50;;;;;;;;;;5054590;28;20207;-60
2022/03/17 11:23:03;;;;;;;7.70;5.07;;;;;;;;;;5054622;28;20235;-61
2022/03/17 11:25:29;;;;;;;7.90;5.27;;;;;;;;;;5054321;28;20287;-62
2022/03/17 11:27:58;;;;;;;7.83;4.90;;;;;;;;;;5053377;28;20200;-62
2022/03/17 11:30:28;;;;;;;8.93;5.10;;;;;;;;;;5054170;28;20201;-62
2022/03/17 11:32:55;;;;;;;7.20;4.70;;;;;;;;;;5053936;28;20295;-61
2022/03/17 11:35:22;;;;;;;6.70;4.80;;;;;;;;;;5054063;28;20280;-62
2022/03/17 11:37:49;;;;;;;6.83;4.87;;;;;;;;;;5053916;28;20204;-61
2022/03/17 11:40:16;;;;;;;6.60;4.30;;;;;;;;;;5054117;28;20254;-62
2022/03/17 11:42:43;;;;;;;9.83;5.10;;;;;;;;;;5053782;28;20718;-62
2022/03/17 11:45:12;;;;;;;6.87;4.33;;;;;;;;;;5053962;28;20235;-61
2022/03/17 11:47:38;;;;;;;8.63;5.27;;;;;;;;;;5053702;28;20518;-60
2022/03/17 11:50:23;;;;;;;6.63;4.03;;;;;;;;;;5053586;28;20208;-62
2022/03/17 11:52:50;;;;;;;6.77;4.50;;;;;;;;;;5053772;28;20585;-61
2022/03/17 11:55:33;;;;;;;8.80;4.50;;;;;;;;;;5053738;28;20211;-61
2022/03/17 11:58:19;;;;;;;7.93;4.13;;;;;;;;;;5053828;28;20207;-62
2022/03/17 12:00:46;;;;;;;6.23;3.83;;;;;;;;;;5053786;28;20261;-62
2022/03/17 12:03:12;;;;;;;4.57;3.80;;;;;;;;;;5053884;28;20682;-62
2022/03/17 12:05:39;;;;;;;6.53;3.30;;;;;;;;;;5053771;28;20231;-62
2022/03/17 12:08:05;;;;;;;5.87;2.90;;;;;;;;;;5053124;28;20192;-62
2022/03/17 12:10:50;;;;;;;6.63;2.97;;;;;;;;;;5053333;28;20211;-62
2022/03/17 12:13:20;;;;;;;5.43;2.30;;;;;;;;;;5053529;28;20646;-61
2022/03/17 12:15:55;;;;;;;4.80;2.43;;;;;;;;;;5053407;28;20295;-60
2022/03/17 12:18:21;;;;;;;4.73;2.43;;;;;;;;;;5053479;28;20320;-61
2022/03/17 12:20:47;;;;;;;5.50;2.40;;;;;;;;;;5053054;28;20222;-62
2022/03/17 12:23:28;;;;;;;6.33;2.67;;;;;;;;;;5053197;28;20240;-62
2022/03/17 12:26:04;;;;;;;3.77;2.00;;;;;;;;;;5053522;28;20286;-61
2022/03/17 12:28:30;;;;;;;4.87;1.93;;;;;;;;;;5051894;28;20298;-59
2022/03/17 12:30:58;;;;;;;4.90;2.10;;;;;;;;;;5053366;28;20207;-60
2022/03/17 12:33:25;;;;;;;7.60;2.50;;;;;;;;;;5053371;28;20227;-60
2022/03/17 12:36:04;;;;;;;6.17;2.60;;;;;;;;;;5053034;28;20746;-59
2022/03/17 12:38:30;;;;;;;4.43;2.10;;;;;;;;;;5053220;28;20246;-60
2022/03/17 12:40:56;;;;;;;6.07;2.37;;;;;;;;;;5052813;28;20215;-60
2022/03/17 12:43:23;;;;;;;8.57;2.47;;;;;;;;;;5053233;28;20248;-60
2022/03/17 12:45:51;;;;;;;4.00;2.10;;;;;;;;;;5050926;28;20249;-60
2022/03/17 12:48:19;;;;;;;5.33;1.60;;;;;;;;;;5052884;28;20200;-60
2022/03/17 12:50:45;;;;;;;5.90;2.27;;;;;;;;;;5052663;28;20230;-60
2022/03/17 12:53:11;;;;;;;6.10;2.27;;;;;;;;;;5052502;28;20716;-60
2022/03/17 12:55:37;;;;;;;4.47;1.87;;;;;;;;;;5052445;28;20196;-60
2022/03/17 12:58:04;;;;;;;5.43;2.43;;;;;;;;;;5052247;28;20204;-60
2022/03/17 13:00:30;;;;;;;6.37;2.13;;;;;;;;;;5052490;28;20616;-60
2022/03/17 13:02:57;;;;;;;6.17;1.93;;;;;;;;;;5052253;28;20242;-60
2022/03/17 13:08:11;;;;;;;7.03;2.30;;;;;;;;;;5052383;28;20199;-60
2022/03/17 13:16:07;;;;;;;6.07;2.20;;;;;;;;;;5051969;28;20317;-60
2022/03/17 13:18:40;;;;;;;8.30;2.53;;;;;;;;;;5051921;28;20283;-61
2022/03/17 13:21:09;;;;;;;6.30;2.20;;;;;;;;;;5051698;28;20320;-60
2022/03/17 13:23:35;;;;;;;7.70;2.90;;;;;;;;;;5051730;28;20313;-60
2022/03/17 13:26:02;;;;;;;7.53;2.67;;;;;;;;;;5051727;28;20733;-60
2022/03/17 13:28:27;;;;;;;7.80;2.80;;;;;;;;;;5051956;28;20234;-60
2022/03/17 13:30:54;;;;;;;6.77;2.40;;;;;;;;;;5050682;28;20224;-60
2022/03/17 13:33:25;;;;;;;4.23;2.13;;;;;;;;;;5051731;28;20192;-60
2022/03/17 13:35:51;;;;;;;5.30;2.03;;;;;;;;;;5051533;28;20203;-60
2022/03/17 13:38:19;;;;;;;6.67;2.37;;;;;;;;;;5051507;28;20192;-60
2022/03/17 13:40:48;;;;;;;6.80;2.43;;;;;;;;;;5051673;28;20215;-60
2022/03/17 13:43:14;;;;;;;8.27;2.50;;;;;;;;;;5051638;28;20232;-60
2022/03/17 13:45:41;;;;;;;7.53;2.40;;;;;;;;;;5051599;28;20254;-61
2022/03/17 13:48:08;;;;;;;4.73;1.83;;;;;;;;;;5051450;28;20673;-61
2022/03/17 13:50:34;;;;;;;7.23;2.27;;;;;;;;;;5051500;28;20250;-61
2022/03/17 13:53:02;;;;;;;5.30;1.97;;;;;;;;;;5051782;28;20613;-60
2022/03/17 13:55:33;;;;;;;11.83;3.00;;;;;;;;;;5051827;28;20234;-60
2022/03/17 13:58:09;;;;;;;6.57;2.27;;;;;;;;;;5051624;28;20249;-60
2022/03/17 14:00:35;;;;;;;5.10;2.03;;;;;;;;;;5051625;28;20257;-60
2022/03/17 14:03:11;;;;;;;6.57;2.60;;;;;;;;;;5051437;28;20235;-59
2022/03/17 14:05:37;;;;;;;4.40;1.90;;;;;;;;;;5051559;28;20203;-61
2022/03/17 14:08:03;;;;;;;6.80;2.23;;;;;;;;;;5051418;28;20625;-59
2022/03/17 14:10:29;;;;;;;4.77;2.33;;;;;;;;;;5051617;28;20635;-61
2022/03/17 14:13:03;;;;;;;7.73;2.03;;;;;;;;;;5051382;28;20261;-61
2022/03/17 14:15:29;;;;;;;6.40;2.10;;;;;;;;;;5051493;28;20199;-61
2022/03/17 14:17:55;;;;;;;7.47;2.47;;;;;;;;;;5051492;28;20295;-60
2022/03/17 14:20:21;;;;;;;4.13;1.90;;;;;;;;;;5051433;28;20286;-60
2022/03/17 14:25:33;;;;;;;4.87;2.20;;;;;;;;;;5051309;28;20203;-60
2022/03/17 14:27:59;;;;;;;6.67;2.77;;;;;;;;;;5050975;28;20204;-59
2022/03/17 14:30:26;;;;;;;7.07;2.30;;;;;;;;;;5051247;28;20258;-59
2022/03/17 14:32:52;;;;;;;5.80;2.30;;;;;;;;;;5049196;28;20235;-59
2022/03/17 14:35:18;;;;;;;8.77;2.80;;;;;;;;;;5051490;28;20227;-59
2022/03/17 14:37:44;;;;;;;8.40;2.63;;;;;;;;;;5051603;28;20196;-60
2022/03/17 14:40:10;;;;;;;6.40;2.20;;;;;;;;;;5051034;28;20275;-59
2022/03/17 14:42:37;;;;;;;10.10;2.43;;;;;;;;;;5052461;28;20223;-60
2022/03/17 14:45:03;;;;;;;5.50;2.10;;;;;;;;;;5054703;28;20247;-60
2022/03/17 14:47:33;;;;;;;7.57;2.47;;;;;;;;;;5055119;28;20278;-59
2022/03/17 14:50:00;;;;;;;6.40;2.70;;;;;;;;;;5054927;28;20567;-60